Pula, Croatia

16:33 CET dnia 25-marzec-2017 (GMT +0100)
Pula | | Change Station

Wysokość 207 ft 44.90 °N, 13.92 °E | Updated 3 minutes ago

Clear
pogodnie
66 ° F
Odczuwalna 66 ° F
Płn.
6
Wiatr zmienny Wiatr od zachodni

Dziś
Wysoka -- | Niska -- ° F
--% Prawdop. opadów
Wczoraj
Wysoka -- | Niska -- ° F
Precip. -- cali
Ciśnienie 30.06 cali
Widzialność -9999.0 mil
chmury
Punkt rosy 48 ° F
Wilgotność 52%
Opady deszczu 0.00 cali
grubość pokrywy śnieżnej Niedostępne.
5:58 AM 6:23 PM
Zmniejszający się sierp Księżyca, 8% visible
METAR LDPL 251530Z 27005KT CAVOK 19/09 Q1018 NOSIG
Ciśnienie 30.06 cali
Widzialność -9999.0 mil
chmury
Punkt rosy 48 ° F
Wilgotność 52%
Opady deszczu 0.00 cali
grubość pokrywy śnieżnej Niedostępne.
5:58 AM 6:23 PM
Zmniejszający się sierp Księżyca, 8% visible
METAR LDPL 251530Z 27005KT CAVOK 19/09 Q1018 NOSIG

Get Severe Weather Alerts

Thanks for signing up!

Be on the lookout for a verification email in your inbox.

You'll start receiving the daily forecast at 8 AM.

×

10-Day Weather Forecast

×

Almanac

Astronomia

Mar. 25, 2017 Wschód Zachów
Aktualny czas
Zmierzch cywilny
Zmierzch żeglarski
świt/zmierzch astronomiczny
Księżyc
całkowite oświetlenie
Długość dnia
Tomorrow will be .
, % of the Moon is Illuminated

Dzisiejsze ekstrema

Country Highs Country Lows

Community

WunderPhotos

Upload Photos

1,962,540 zdjęcia zostały przesłane!

WunderBlog® & News

Nearby

Jakość powietrza

  Jakość powietrza czynnik AQ Zanieczyszczenie
Not available.

Głębokość pokrywy śnieżnej

Station Depth n.p.m.

Aktywność sejsmiczna

Miejscowość Distance Mag. Time & Date
Minimum magnitude displayed is 2.5.

Aktywność sejsmiczna

Miejscowość Distance Mag. Time & Date
Minimum magnitude displayed is 2.5.

Temperatury wody na wybrzeżu

Miejsce Temperatura

Stations

Najbliższa stacja pogodowa

Lokalizacja stacji Temp. czynnik chłodzący wiatru Punkt rosy Wilgotność Wiatr Precip. Wysokość Uaktualniono Typ